createdAt,value
2022-12-11T00:01:58.379Z,93.51
2022-12-11T00:04:25.026Z,93.93
2022-12-11T00:06:52.608Z,95.32
2022-12-11T00:09:20.519Z,95.88
2022-12-11T00:11:47.567Z,96.04
2022-12-11T00:14:15.487Z,96.65
2022-12-11T00:16:42.239Z,96.52
2022-12-11T00:19:09.009Z,97.21
2022-12-11T00:21:36.175Z,96.84
2022-12-11T00:24:02.836Z,96.39
2022-12-11T00:26:29.512Z,95.78
2022-12-11T00:28:57.157Z,95.27
2022-12-11T00:31:24.780Z,95.43
2022-12-11T00:33:51.706Z,94.58
2022-12-11T00:36:21.255Z,94.12
2022-12-11T00:38:49.212Z,94.00
2022-12-11T00:41:18.894Z,94.15
2022-12-11T00:43:46.269Z,93.50
2022-12-11T00:46:13.449Z,93.09
2022-12-11T00:48:40.211Z,92.34
2022-12-11T00:51:07.497Z,92.01
2022-12-11T00:53:34.166Z,91.99
2022-12-11T00:56:00.884Z,91.29
2022-12-11T00:58:27.765Z,91.21
2022-12-11T01:00:54.622Z,91.27
2022-12-11T01:03:21.360Z,91.11
2022-12-11T01:05:52.997Z,90.90
2022-12-11T01:08:19.741Z,90.72
2022-12-11T01:10:46.477Z,90.41
2022-12-11T01:13:13.274Z,90.42
2022-12-11T01:15:45.299Z,90.44
2022-12-11T01:18:14.079Z,90.87
2022-12-11T01:20:42.723Z,92.90
2022-12-11T01:23:13.163Z,93.13
2022-12-11T01:25:39.880Z,92.75
2022-12-11T01:28:07.656Z,94.42
2022-12-11T01:30:35.784Z,94.22
2022-12-11T01:33:02.969Z,93.33
2022-12-11T01:35:29.588Z,94.53
2022-12-11T01:37:56.315Z,94.95
2022-12-11T01:40:23.597Z,94.91
2022-12-11T01:42:50.585Z,96.45
2022-12-11T01:45:38.958Z,95.02
2022-12-11T01:48:09.803Z,94.58
2022-12-11T01:50:42.227Z,94.73
2022-12-11T01:53:12.254Z,95.01
2022-12-11T01:55:39.963Z,95.55
2022-12-11T01:58:06.976Z,94.96
2022-12-11T02:00:33.635Z,95.88
2022-12-11T02:03:00.279Z,96.04
2022-12-11T02:05:26.929Z,95.98
2022-12-11T02:07:58.453Z,95.94
2022-12-11T02:10:44.447Z,95.73
2022-12-11T02:13:39.763Z,96.10
2022-12-11T02:16:16.726Z,95.27
2022-12-11T02:18:53.518Z,95.30
2022-12-11T02:21:23.028Z,95.36
2022-12-11T02:24:18.916Z,95.39
2022-12-11T02:27:16.329Z,94.88
2022-12-11T02:30:09.341Z,94.50
2022-12-11T02:32:55.631Z,94.38
2022-12-11T02:35:35.546Z,94.06
2022-12-11T02:38:08.051Z,94.43
2022-12-11T02:40:38.418Z,94.81
2022-12-11T02:43:09.907Z,94.91
2022-12-11T02:45:39.707Z,95.50
2022-12-11T02:48:09.943Z,95.58
2022-12-11T02:50:42.393Z,95.25
2022-12-11T02:53:12.383Z,95.15
2022-12-11T02:55:41.447Z,95.34
2022-12-11T02:58:26.897Z,95.54
2022-12-11T03:00:53.595Z,95.12
2022-12-11T03:03:20.914Z,95.06
2022-12-11T03:05:47.835Z,95.99
2022-12-11T03:08:17.497Z,95.58
2022-12-11T03:10:45.547Z,95.64
2022-12-11T03:13:16.346Z,95.94
2022-12-11T03:16:03.972Z,96.78
2022-12-11T03:18:50.007Z,98.61
2022-12-11T03:21:24.747Z,97.27
2022-12-11T03:24:05.222Z,97.16
2022-12-11T03:26:38.315Z,97.94
2022-12-11T03:29:15.773Z,97.81
2022-12-11T03:31:46.334Z,96.98
2022-12-11T03:34:24.711Z,96.01
2022-12-11T03:36:53.704Z,96.61
2022-12-11T03:39:32.519Z,97.12
2022-12-11T03:42:05.894Z,97.28
2022-12-11T03:44:34.990Z,96.94
2022-12-11T03:47:05.807Z,97.39
2022-12-11T03:49:37.143Z,96.50
2022-12-11T03:52:05.730Z,96.49
2022-12-11T03:54:34.423Z,96.10
2022-12-11T03:57:04.367Z,95.98
2022-12-11T03:59:31.006Z,95.69
2022-12-11T04:01:57.909Z,95.33
2022-12-11T04:04:24.668Z,95.53
2022-12-11T04:06:51.415Z,95.56
2022-12-11T04:09:18.089Z,95.04
2022-12-11T04:11:44.765Z,95.16
2022-12-11T04:14:32.751Z,94.13
2022-12-11T04:17:00.608Z,92.85
2022-12-11T04:19:45.881Z,93.46
2022-12-11T04:22:33.024Z,93.69
2022-12-11T04:25:00.406Z,93.34
2022-12-11T04:27:45.852Z,92.60
2022-12-11T04:30:19.125Z,93.48
2022-12-11T04:32:45.714Z,94.25
2022-12-11T04:35:13.073Z,94.52
2022-12-11T04:37:39.933Z,94.43
2022-12-11T04:40:10.659Z,94.36
2022-12-11T04:42:37.465Z,93.23
2022-12-11T04:45:05.814Z,93.09
2022-12-11T04:47:32.428Z,93.26
2022-12-11T04:49:59.084Z,92.56
2022-12-11T04:52:25.686Z,92.95
2022-12-11T04:54:52.374Z,93.02
2022-12-11T04:57:20.740Z,92.71
2022-12-11T04:59:47.956Z,92.68
2022-12-11T05:02:15.757Z,92.84
2022-12-11T05:04:42.733Z,92.45
2022-12-11T05:07:09.613Z,91.96
2022-12-11T05:09:36.595Z,92.06
2022-12-11T05:12:03.703Z,92.19
2022-12-11T05:14:32.015Z,91.86
2022-12-11T05:16:59.670Z,92.05
2022-12-11T05:19:26.978Z,91.63
2022-12-11T05:21:53.859Z,91.38
2022-12-11T05:24:20.603Z,91.55
2022-12-11T05:26:47.188Z,91.76
2022-12-11T05:29:13.826Z,91.20
2022-12-11T05:31:40.540Z,91.63
2022-12-11T05:34:07.186Z,91.71
2022-12-11T05:36:34.392Z,90.94
2022-12-11T05:39:02.065Z,90.49
2022-12-11T05:41:31.016Z,90.96
2022-12-11T05:43:57.626Z,91.18
2022-12-11T05:46:27.161Z,91.91
2022-12-11T05:49:00.301Z,91.83
2022-12-11T05:51:28.229Z,92.09
2022-12-11T05:53:56.573Z,92.17
2022-12-11T05:56:26.831Z,91.82
2022-12-11T05:58:54.501Z,92.19
2022-12-11T06:01:28.515Z,91.28
2022-12-11T06:03:56.318Z,90.98
2022-12-11T06:06:23.972Z,92.30
2022-12-11T06:08:51.929Z,92.20
2022-12-11T06:11:23.800Z,91.79
2022-12-11T06:13:52.039Z,91.52
2022-12-11T06:16:18.848Z,90.96
2022-12-11T06:18:45.859Z,91.06
2022-12-11T06:21:19.849Z,92.35
2022-12-11T06:23:48.136Z,92.25
2022-12-11T06:26:15.883Z,92.76
2022-12-11T06:28:42.651Z,91.53
2022-12-11T06:31:10.024Z,91.18
2022-12-11T06:33:36.823Z,90.88
2022-12-11T06:36:05.628Z,90.80
2022-12-11T06:38:32.566Z,90.92
2022-12-11T06:41:01.895Z,90.68
2022-12-11T06:43:28.500Z,90.98
2022-12-11T06:45:59.189Z,91.80
2022-12-11T06:48:28.825Z,92.22
2022-12-11T06:50:55.479Z,91.60
2022-12-11T06:53:22.141Z,91.18
2022-12-11T06:55:48.755Z,90.70
2022-12-11T06:58:15.434Z,91.06
2022-12-11T07:00:42.251Z,91.04
2022-12-11T07:03:10.037Z,90.81
2022-12-11T07:05:36.695Z,91.22
2022-12-11T07:08:03.423Z,90.55
2022-12-11T07:10:30.136Z,90.36
2022-12-11T07:12:56.744Z,90.71
2022-12-11T07:15:23.455Z,89.99
2022-12-11T07:17:50.069Z,90.00
2022-12-11T07:20:17.322Z,89.89
2022-12-11T07:22:46.705Z,89.35
2022-12-11T07:25:14.695Z,88.31
2022-12-11T07:27:41.915Z,88.12
2022-12-11T07:30:09.538Z,87.00
2022-12-11T07:32:36.406Z,88.17
2022-12-11T07:35:03.741Z,88.49
2022-12-11T07:37:30.342Z,87.84
2022-12-11T07:39:57.022Z,87.10
2022-12-11T07:42:23.742Z,86.43
2022-12-11T07:44:50.451Z,87.42
2022-12-11T07:47:17.066Z,87.51
2022-12-11T07:49:43.661Z,87.50
2022-12-11T07:52:10.458Z,87.44
2022-12-11T07:54:37.192Z,88.14
2022-12-11T07:57:03.852Z,88.47
2022-12-11T07:59:31.002Z,87.74
2022-12-11T08:01:57.784Z,86.02
2022-12-11T08:04:24.503Z,86.05
2022-12-11T08:06:51.129Z,85.16
2022-12-11T08:09:21.239Z,83.73
2022-12-11T08:11:50.484Z,82.52
2022-12-11T08:14:18.004Z,81.26
2022-12-11T08:16:44.821Z,80.72
2022-12-11T08:19:12.383Z,79.51
2022-12-11T08:21:40.083Z,76.47
2022-12-11T08:24:07.931Z,71.93
2022-12-11T08:26:34.817Z,66.66
2022-12-11T08:29:02.581Z,62.45
2022-12-11T08:31:29.754Z,59.05
2022-12-11T08:33:56.849Z,56.29
2022-12-11T08:36:23.990Z,55.53
2022-12-11T08:38:51.785Z,53.26
2022-12-11T08:41:20.826Z,55.28
2022-12-11T08:43:48.174Z,51.33
2022-12-11T08:46:15.346Z,48.32
2022-12-11T08:48:43.211Z,46.71
2022-12-11T08:51:15.756Z,49.25
2022-12-11T08:53:43.012Z,45.92
2022-12-11T08:56:18.011Z,43.21
2022-12-11T08:58:45.792Z,42.10
2022-12-11T09:01:15.723Z,46.93
2022-12-11T09:03:42.638Z,46.47
2022-12-11T09:06:12.327Z,47.42
2022-12-11T09:08:38.966Z,50.72
2022-12-11T09:11:08.207Z,50.52
2022-12-11T09:13:35.330Z,52.47
2022-12-11T09:16:05.550Z,51.18
2022-12-11T09:18:32.539Z,46.73
2022-12-11T09:21:01.243Z,46.47
2022-12-11T09:23:27.957Z,43.11
2022-12-11T09:25:54.641Z,47.01
2022-12-11T09:28:21.996Z,39.24
2022-12-11T09:30:48.753Z,40.65
2022-12-11T09:33:15.517Z,39.92
2022-12-11T09:35:42.499Z,37.21
2022-12-11T09:38:09.739Z,33.96
2022-12-11T09:40:43.298Z,33.52
2022-12-11T09:43:26.965Z,33.96
2022-12-11T09:45:55.197Z,32.34
2022-12-11T09:48:26.104Z,37.68
2022-12-11T09:50:54.999Z,38.66
2022-12-11T09:53:34.459Z,39.93
2022-12-11T09:56:15.817Z,37.63
2022-12-11T09:59:14.604Z,38.19
2022-12-11T10:01:59.135Z,37.08
2022-12-11T10:05:04.848Z,36.67
2022-12-11T10:07:45.407Z,31.54
2022-12-11T10:10:40.179Z,31.46
2022-12-11T10:13:34.812Z,34.96
2022-12-11T10:16:17.807Z,38.23
2022-12-11T10:18:44.712Z,37.71
2022-12-11T10:21:14.255Z,35.80
2022-12-11T10:23:48.788Z,38.15
2022-12-11T10:26:21.264Z,37.98
2022-12-11T10:28:47.990Z,39.44
2022-12-11T10:31:38.148Z,47.34
2022-12-11T10:34:26.103Z,40.63
2022-12-11T10:37:00.194Z,37.38
2022-12-11T10:39:27.915Z,41.51
2022-12-11T10:41:56.074Z,38.88
2022-12-11T10:44:28.150Z,41.33
2022-12-11T10:47:15.294Z,39.50
2022-12-11T10:49:59.900Z,37.50
2022-12-11T10:52:35.075Z,38.65
2022-12-11T10:55:06.992Z,39.41
2022-12-11T10:57:39.189Z,36.04
2022-12-11T11:00:08.887Z,31.43
2022-12-11T11:02:38.619Z,32.17
2022-12-11T11:05:34.606Z,32.90
2022-12-11T11:08:13.798Z,35.05
2022-12-11T11:11:21.887Z,32.55
2022-12-11T11:13:48.733Z,30.25
2022-12-11T11:16:20.863Z,31.35
2022-12-11T11:18:55.772Z,30.22
2022-12-11T11:21:26.278Z,29.88
2022-12-11T11:23:54.251Z,30.54
2022-12-11T11:26:38.319Z,29.36
2022-12-11T11:29:27.516Z,28.74
2022-12-11T11:31:54.308Z,28.48
2022-12-11T11:34:22.295Z,32.34
2022-12-11T11:36:57.802Z,29.71
2022-12-11T11:39:41.382Z,27.63
2022-12-11T11:42:27.801Z,29.29
2022-12-11T11:45:10.789Z,28.31
2022-12-11T11:47:45.251Z,29.68
2022-12-11T11:50:19.034Z,30.68
2022-12-11T11:52:51.863Z,32.80
2022-12-11T11:55:28.379Z,31.83
2022-12-11T11:58:13.745Z,29.89
2022-12-11T12:00:40.535Z,29.30
2022-12-11T12:03:15.080Z,30.31
2022-12-11T12:06:04.998Z,30.51
2022-12-11T12:08:48.833Z,32.38
2022-12-11T12:11:30.798Z,33.43
2022-12-11T12:14:03.426Z,32.77
2022-12-11T12:16:53.201Z,34.43
2022-12-11T12:19:35.507Z,39.40
2022-12-11T12:22:31.373Z,46.79
2022-12-11T12:25:00.999Z,50.63
2022-12-11T12:30:23.025Z,51.50
2022-12-11T12:33:05.328Z,51.20
2022-12-11T12:35:36.419Z,49.36
2022-12-11T12:38:09.454Z,49.52
2022-12-11T12:41:14.248Z,49.52
2022-12-11T12:43:56.112Z,50.90
2022-12-11T12:46:50.799Z,52.04
2022-12-11T12:49:29.479Z,53.16
2022-12-11T12:51:57.819Z,54.40
2022-12-11T12:54:28.504Z,54.83
2022-12-11T12:56:56.628Z,55.29
2022-12-11T12:59:28.690Z,55.43
2022-12-11T13:02:06.400Z,55.96
2022-12-11T13:07:32.669Z,56.45
2022-12-11T13:10:25.205Z,55.12
2022-12-11T13:12:52.401Z,55.53
2022-12-11T13:15:32.994Z,56.18
2022-12-11T13:18:01.678Z,54.23
2022-12-11T13:20:32.099Z,55.64
2022-12-11T13:23:18.406Z,56.01
2022-12-11T13:25:57.268Z,57.69
2022-12-11T13:28:28.278Z,54.63
2022-12-11T13:31:02.203Z,55.62
2022-12-11T13:33:30.656Z,54.18
2022-12-11T13:36:15.775Z,51.15
2022-12-11T13:38:51.495Z,51.74
2022-12-11T13:41:20.390Z,50.78
2022-12-11T13:43:49.781Z,52.89
2022-12-11T13:46:25.017Z,56.51
2022-12-11T13:49:00.790Z,56.83
2022-12-11T13:51:31.519Z,56.62
2022-12-11T13:54:17.406Z,56.57
2022-12-11T13:57:03.365Z,52.94
2022-12-11T13:59:37.372Z,54.46
2022-12-11T14:02:21.070Z,57.57
2022-12-11T14:04:50.607Z,60.24
2022-12-11T14:07:23.927Z,59.43
2022-12-11T14:09:51.415Z,58.68
2022-12-11T14:12:21.497Z,60.82
2022-12-11T14:14:54.906Z,56.92
2022-12-11T14:17:28.259Z,58.33
2022-12-11T14:19:58.112Z,59.73
2022-12-11T14:22:29.921Z,60.75
2022-12-11T14:24:59.080Z,62.50
2022-12-11T14:27:27.726Z,61.63
2022-12-11T14:29:55.071Z,62.04
2022-12-11T14:32:43.283Z,63.76
2022-12-11T14:35:24.221Z,63.35
2022-12-11T14:37:52.347Z,62.69
2022-12-11T14:40:23.899Z,61.23
2022-12-11T14:43:00.134Z,62.65
2022-12-11T14:45:38.598Z,63.68
2022-12-11T14:48:20.889Z,64.21
2022-12-11T14:51:01.163Z,65.68
2022-12-11T14:53:40.257Z,66.31
2022-12-11T14:56:09.794Z,67.42
2022-12-11T14:58:46.847Z,68.61
2022-12-11T15:01:25.585Z,67.77
2022-12-11T15:04:14.641Z,68.75
2022-12-11T15:06:49.124Z,69.05
2022-12-11T15:09:34.015Z,70.47
2022-12-11T15:12:11.323Z,72.47
2022-12-11T15:14:50.341Z,72.28
2022-12-11T15:17:18.794Z,72.48
2022-12-11T15:19:51.692Z,72.93
2022-12-11T15:22:23.800Z,73.21
2022-12-11T15:24:53.258Z,74.43
2022-12-11T15:27:25.201Z,74.83
2022-12-11T15:29:52.027Z,76.38
2022-12-11T15:32:21.786Z,76.66
2022-12-11T15:34:51.470Z,76.75
2022-12-11T15:37:22.851Z,76.69
2022-12-11T15:39:50.233Z,76.30
2022-12-11T15:42:41.739Z,77.92
2022-12-11T15:45:16.601Z,78.14
2022-12-11T15:47:43.969Z,77.25
2022-12-11T15:50:22.962Z,77.44
2022-12-11T15:52:51.489Z,77.86
2022-12-11T15:55:19.598Z,77.75
2022-12-11T15:57:51.344Z,77.11
2022-12-11T16:00:19.386Z,77.33
2022-12-11T16:02:46.653Z,78.24
2022-12-11T16:05:14.491Z,77.52
2022-12-11T16:07:41.770Z,78.16
2022-12-11T16:10:14.506Z,79.04
2022-12-11T16:12:42.005Z,79.19
2022-12-11T16:15:09.788Z,79.37
2022-12-11T16:17:36.865Z,79.91
2022-12-11T16:20:04.056Z,79.15
2022-12-11T16:22:31.142Z,79.17
2022-12-11T16:24:57.767Z,79.42
2022-12-11T16:27:24.458Z,78.99
2022-12-11T16:29:51.352Z,79.32
2022-12-11T16:32:18.639Z,79.52
2022-12-11T16:34:45.294Z,81.23
2022-12-11T16:37:12.951Z,80.49
2022-12-11T16:39:39.852Z,80.88
2022-12-11T16:42:07.152Z,80.32
2022-12-11T16:44:33.987Z,79.58
2022-12-11T16:47:00.725Z,80.74
2022-12-11T16:49:27.373Z,81.36
2022-12-11T16:51:54.044Z,80.43
2022-12-11T16:54:20.726Z,80.04
2022-12-11T16:56:47.442Z,79.93
2022-12-11T16:59:14.094Z,79.66
2022-12-11T17:01:41.144Z,81.49
2022-12-11T17:04:07.925Z,81.62
2022-12-11T17:06:34.702Z,81.86
2022-12-11T17:09:01.515Z,82.01
2022-12-11T17:11:28.323Z,82.20
2022-12-11T17:13:56.665Z,81.74
2022-12-11T17:16:26.139Z,81.67
2022-12-11T17:18:53.189Z,81.37
2022-12-11T17:21:22.310Z,82.36
2022-12-11T17:23:49.919Z,83.69
2022-12-11T17:26:17.186Z,82.94
2022-12-11T17:28:44.407Z,83.72
2022-12-11T17:31:17.341Z,84.32
2022-12-11T17:33:45.178Z,83.24
2022-12-11T17:36:14.483Z,82.84
2022-12-11T17:38:41.521Z,82.87
2022-12-11T17:41:13.119Z,82.96
2022-12-11T17:43:43.568Z,83.02
2022-12-11T17:46:11.641Z,83.28
2022-12-11T17:48:38.699Z,86.82
2022-12-11T17:51:07.808Z,85.04
2022-12-11T17:53:36.299Z,84.36
2022-12-11T17:56:06.455Z,83.68
2022-12-11T17:58:34.083Z,83.11
2022-12-11T18:01:05.776Z,82.54
2022-12-11T18:03:32.504Z,83.08
2022-12-11T18:06:04.833Z,83.35
2022-12-11T18:08:31.991Z,82.79
2022-12-11T18:11:09.591Z,82.30
2022-12-11T18:13:36.409Z,82.32
2022-12-11T18:16:06.038Z,82.33
2022-12-11T18:18:33.251Z,82.94
2022-12-11T18:21:00.367Z,82.95
2022-12-11T18:23:27.505Z,82.59
2022-12-11T18:25:54.692Z,82.58
2022-12-11T18:28:21.506Z,82.14
2022-12-11T18:30:48.316Z,82.80
2022-12-11T18:33:15.109Z,84.00
2022-12-11T18:35:42.148Z,84.35
2022-12-11T18:38:10.470Z,85.81
2022-12-11T18:40:38.435Z,85.89
2022-12-11T18:43:05.105Z,86.38
2022-12-11T18:45:32.196Z,86.03
2022-12-11T18:47:59.100Z,85.58
2022-12-11T18:50:25.918Z,84.77
2022-12-11T18:52:54.623Z,85.00
2022-12-11T18:55:21.714Z,85.46
2022-12-11T18:57:48.651Z,84.76
2022-12-11T19:00:16.429Z,84.06
2022-12-11T19:02:43.166Z,83.63
2022-12-11T19:05:10.792Z,83.12
2022-12-11T19:07:37.893Z,83.48
2022-12-11T19:10:05.523Z,83.85
2022-12-11T19:12:32.167Z,83.69
2022-12-11T19:14:58.931Z,83.96
2022-12-11T19:17:25.649Z,83.28
2022-12-11T19:19:52.368Z,83.33
2022-12-11T19:22:19.064Z,83.46
2022-12-11T19:24:45.776Z,83.43
2022-12-11T19:27:13.840Z,82.92
2022-12-11T19:29:41.315Z,83.05
2022-12-11T19:32:08.184Z,84.13
2022-12-11T19:34:34.860Z,84.78
2022-12-11T19:37:01.508Z,84.22
2022-12-11T19:39:28.179Z,83.98
2022-12-11T19:41:54.866Z,84.80
2022-12-11T19:44:21.582Z,84.08
2022-12-11T19:46:48.363Z,84.84
2022-12-11T19:49:15.470Z,84.86
2022-12-11T19:51:42.270Z,83.79
2022-12-11T19:54:13.039Z,83.62
2022-12-11T19:56:39.786Z,83.51
2022-12-11T19:59:08.939Z,83.17
2022-12-11T20:01:37.592Z,82.41
2022-12-11T20:04:15.016Z,82.59
2022-12-11T20:06:43.569Z,83.39
2022-12-11T20:09:12.014Z,84.01
2022-12-11T20:11:40.962Z,82.97
2022-12-11T20:14:07.862Z,83.20
2022-12-11T20:17:02.147Z,83.70
2022-12-11T20:19:21.256Z,84.16
2022-12-11T20:21:48.107Z,85.11
2022-12-11T20:24:14.803Z,84.76
2022-12-11T20:26:41.521Z,84.10
2022-12-11T20:29:08.468Z,84.50
2022-12-11T20:31:36.791Z,84.89
2022-12-11T20:34:04.549Z,83.98
2022-12-11T20:36:31.696Z,84.54
2022-12-11T20:38:58.937Z,84.40
2022-12-11T20:41:26.684Z,85.49
2022-12-11T20:43:54.216Z,85.78
2022-12-11T20:46:25.101Z,85.78
2022-12-11T20:48:53.136Z,85.59
2022-12-11T20:51:25.685Z,85.44
2022-12-11T20:54:01.253Z,85.35
2022-12-11T20:56:30.903Z,85.80
2022-12-11T20:58:59.134Z,85.91
2022-12-11T21:01:28.428Z,86.45
2022-12-11T21:03:55.138Z,86.78
2022-12-11T21:06:25.851Z,86.08
2022-12-11T21:08:53.570Z,86.52
2022-12-11T21:11:20.978Z,86.13
2022-12-11T21:13:47.733Z,85.42
2022-12-11T21:16:14.570Z,85.61
2022-12-11T21:18:41.621Z,84.55
2022-12-11T21:21:08.368Z,84.16
2022-12-11T21:23:35.422Z,83.27
2022-12-11T21:26:03.225Z,84.68
2022-12-11T21:28:35.246Z,83.57
2022-12-11T21:31:05.454Z,83.74
2022-12-11T21:33:32.155Z,83.92
2022-12-11T21:36:00.320Z,84.67
2022-12-11T21:38:27.896Z,85.63
2022-12-11T21:40:55.595Z,87.14
2022-12-11T21:43:22.342Z,85.64
2022-12-11T21:46:04.904Z,85.31
2022-12-11T21:48:31.947Z,86.04
2022-12-11T21:51:06.760Z,85.36
2022-12-11T21:53:33.569Z,85.79
2022-12-11T21:56:00.265Z,86.60
2022-12-11T21:58:26.912Z,85.51
2022-12-11T22:00:53.606Z,85.76
2022-12-11T22:03:20.449Z,85.61
2022-12-11T22:05:47.074Z,85.70
2022-12-11T22:08:13.795Z,86.35
2022-12-11T22:10:40.420Z,86.81
2022-12-11T22:13:07.077Z,85.68
2022-12-11T22:15:33.769Z,85.69
2022-12-11T22:18:00.394Z,85.49
2022-12-11T22:20:27.061Z,86.31
2022-12-11T22:22:53.705Z,85.28
2022-12-11T22:25:20.361Z,85.01
2022-12-11T22:27:47.026Z,85.24
2022-12-11T22:30:14.057Z,85.41
2022-12-11T22:32:40.715Z,84.51
2022-12-11T22:35:07.665Z,85.51
2022-12-11T22:37:34.290Z,84.63
2022-12-11T22:40:01.195Z,84.22
2022-12-11T22:42:27.881Z,84.14
2022-12-11T22:44:54.508Z,84.84
2022-12-11T22:47:21.159Z,84.14
2022-12-11T22:49:47.927Z,83.93
2022-12-11T22:52:14.561Z,83.87
2022-12-11T22:54:42.492Z,83.69
2022-12-11T22:57:09.381Z,82.54
2022-12-11T22:59:36.474Z,83.78
2022-12-11T23:02:03.382Z,83.63
2022-12-11T23:04:30.695Z,84.88
2022-12-11T23:06:57.684Z,83.74
2022-12-11T23:09:24.534Z,83.98
2022-12-11T23:11:51.707Z,84.71
2022-12-11T23:14:19.030Z,85.08
2022-12-11T23:16:45.723Z,86.32
2022-12-11T23:19:13.013Z,87.24
2022-12-11T23:21:40.366Z,85.74
2022-12-11T23:24:07.611Z,86.94
2022-12-11T23:26:34.422Z,87.30
2022-12-11T23:29:02.013Z,86.13
2022-12-11T23:31:30.092Z,84.77
2022-12-11T23:33:57.191Z,84.54
2022-12-11T23:36:25.293Z,85.34
2022-12-11T23:38:55.024Z,85.85
2022-12-11T23:41:22.151Z,84.72
2022-12-11T23:43:48.818Z,84.78
2022-12-11T23:46:21.545Z,84.44
2022-12-11T23:48:48.871Z,84.55
2022-12-11T23:51:17.851Z,83.95
2022-12-11T23:53:45.077Z,84.20
2022-12-11T23:56:16.141Z,84.09
2022-12-11T23:58:42.820Z,83.74
